createdAt,value
2023-03-22T00:02:27.478Z,99945.56
2023-03-22T00:04:58.421Z,99931.47
2023-03-22T00:07:28.166Z,99935.91
2023-03-22T00:10:00.383Z,99936.00
2023-03-22T00:12:29.961Z,99934.28
2023-03-22T00:15:00.172Z,99926.38
2023-03-22T00:17:30.625Z,99929.13
2023-03-22T00:20:00.250Z,99934.41
2023-03-22T00:22:29.823Z,99930.03
2023-03-22T00:25:01.977Z,99924.66
2023-03-22T00:27:31.743Z,99926.53
2023-03-22T00:30:01.327Z,99914.25
2023-03-22T00:32:30.920Z,99918.56
2023-03-22T00:35:01.904Z,99915.94
2023-03-22T00:37:34.187Z,99907.16
2023-03-22T00:40:08.875Z,99902.69
2023-03-22T00:42:38.566Z,99905.34
2023-03-22T00:45:10.583Z,99899.19
2023-03-22T00:47:40.310Z,99900.22
2023-03-22T00:50:11.193Z,99901.22
2023-03-22T00:52:41.019Z,99889.94
2023-03-22T00:55:14.147Z,99880.50
2023-03-22T00:57:43.755Z,99892.25
2023-03-22T01:00:16.187Z,99875.78
2023-03-22T01:02:47.707Z,99882.16
2023-03-22T01:05:22.672Z,99871.72
2023-03-22T01:07:55.208Z,99870.16
2023-03-22T01:10:27.332Z,99866.88
2023-03-22T01:12:57.026Z,99863.63
2023-03-22T01:15:26.604Z,99867.34
2023-03-22T01:17:56.247Z,99858.94
2023-03-22T01:20:26.030Z,99862.88
2023-03-22T01:22:55.794Z,99863.31
2023-03-22T01:25:27.973Z,99856.84
2023-03-22T01:27:57.540Z,99845.94
2023-03-22T01:30:27.259Z,99856.13
2023-03-22T01:32:56.924Z,99846.00
2023-03-22T01:35:26.552Z,99845.66
2023-03-22T01:37:56.619Z,99839.88
2023-03-22T01:40:29.385Z,99843.66
2023-03-22T01:42:59.869Z,99839.50
2023-03-22T01:45:42.992Z,99846.69
2023-03-22T01:48:18.169Z,99833.72
2023-03-22T01:50:56.124Z,99831.16
2023-03-22T01:53:29.808Z,99825.88
2023-03-22T01:56:02.323Z,99827.63
2023-03-22T01:58:35.655Z,99818.13
2023-03-22T02:01:08.415Z,99813.16
2023-03-22T02:03:53.303Z,99812.56
2023-03-22T02:06:24.025Z,99804.00
2023-03-22T02:09:01.162Z,99807.66
2023-03-22T02:11:38.573Z,99812.34
2023-03-22T02:14:31.165Z,99809.19
2023-03-22T02:17:30.461Z,99800.63
2023-03-22T02:20:41.912Z,99801.56
2023-03-22T02:23:43.102Z,99794.72
2023-03-22T02:26:49.605Z,99793.13
2023-03-22T02:29:30.032Z,99788.91
2023-03-22T02:32:27.872Z,99786.28
2023-03-22T02:35:23.244Z,99784.47
2023-03-22T02:38:16.987Z,99786.22
2023-03-22T02:40:53.150Z,99787.06
2023-03-22T02:43:34.325Z,99785.22
2023-03-22T02:46:08.474Z,99779.94
2023-03-22T02:48:38.937Z,99774.66
2023-03-22T02:51:11.272Z,99773.72
2023-03-22T02:53:45.592Z,99771.00
2023-03-22T02:56:23.060Z,99757.78
2023-03-22T02:58:54.679Z,99757.78
2023-03-22T03:01:26.593Z,99757.72
2023-03-22T03:03:59.918Z,99753.41
2023-03-22T03:06:32.811Z,99746.44
2023-03-22T03:09:02.768Z,99758.03
2023-03-22T03:11:35.261Z,99752.91
2023-03-22T03:14:04.889Z,99750.44
2023-03-22T03:16:36.949Z,99751.41
2023-03-22T03:19:11.829Z,99752.25
2023-03-22T03:21:46.891Z,99753.22
2023-03-22T03:24:23.578Z,99743.56
2023-03-22T03:27:01.672Z,99748.84
2023-03-22T03:29:36.117Z,99747.19
2023-03-22T03:32:09.941Z,99743.81
2023-03-22T03:34:42.536Z,99745.78
2023-03-22T03:37:14.913Z,99746.78
2023-03-22T03:39:47.103Z,99738.16
2023-03-22T03:42:20.103Z,99736.38
2023-03-22T03:44:49.716Z,99735.53
2023-03-22T03:47:19.339Z,99734.78
2023-03-22T03:49:48.965Z,99735.78
2023-03-22T03:52:19.162Z,99728.78
2023-03-22T03:54:48.712Z,99733.28
2023-03-22T03:57:24.893Z,99735.16
2023-03-22T03:59:54.721Z,99733.34
2023-03-22T04:02:43.312Z,99738.47
2023-03-22T04:05:24.675Z,99731.47
2023-03-22T04:07:54.415Z,99730.63
2023-03-22T04:10:24.101Z,99739.47
2023-03-22T04:12:56.300Z,99745.59
2023-03-22T04:15:26.029Z,99743.81
2023-03-22T04:17:59.169Z,99746.44
2023-03-22T04:20:32.114Z,99750.00
2023-03-22T04:23:02.836Z,99746.59
2023-03-22T04:25:33.975Z,99744.88
2023-03-22T04:28:13.696Z,99740.66
2023-03-22T04:30:45.851Z,99737.22
2023-03-22T04:33:39.363Z,99748.81
2023-03-22T04:36:20.417Z,99743.75
2023-03-22T04:39:13.921Z,99747.22
2023-03-22T04:41:49.045Z,99737.28
2023-03-22T04:44:22.792Z,99736.97
2023-03-22T04:46:53.693Z,99731.38
2023-03-22T04:49:23.442Z,99724.97
2023-03-22T04:51:53.144Z,99716.91
2023-03-22T04:54:29.532Z,99715.28
2023-03-22T04:56:59.156Z,99715.41
2023-03-22T04:59:33.528Z,99712.97
2023-03-22T05:02:03.191Z,99714.88
2023-03-22T05:04:40.720Z,99707.97
2023-03-22T05:07:19.107Z,99714.28
2023-03-22T05:09:54.527Z,99730.25
2023-03-22T05:12:24.612Z,99724.97
2023-03-22T05:15:04.300Z,99730.78
2023-03-22T05:17:37.574Z,99732.75
2023-03-22T05:20:10.363Z,99724.06
2023-03-22T05:22:41.821Z,99714.63
2023-03-22T05:25:14.047Z,99710.66
2023-03-22T05:27:46.978Z,99710.31
2023-03-22T05:30:37.860Z,99712.97
2023-03-22T05:33:17.003Z,99718.34
2023-03-22T05:35:48.891Z,99719.16
2023-03-22T05:38:19.307Z,99722.22
2023-03-22T05:40:53.074Z,99712.97
2023-03-22T05:43:22.866Z,99715.97
2023-03-22T05:45:56.215Z,99720.84
2023-03-22T05:48:38.370Z,99723.88
2023-03-22T05:51:09.568Z,99724.38
2023-03-22T05:53:39.547Z,99723.06
2023-03-22T05:56:15.230Z,99720.06
2023-03-22T05:58:46.974Z,99723.25
2023-03-22T06:01:23.223Z,99715.00
2023-03-22T06:04:11.537Z,99713.00
2023-03-22T06:07:07.184Z,99713.63
2023-03-22T06:09:46.092Z,99706.34
2023-03-22T06:12:24.811Z,99706.81
2023-03-22T06:15:15.451Z,99704.63
2023-03-22T06:18:10.772Z,99702.59
2023-03-22T06:20:47.133Z,99699.91
2023-03-22T06:23:21.524Z,99704.94
2023-03-22T06:25:51.972Z,99706.66
2023-03-22T06:28:22.138Z,99710.94
2023-03-22T06:30:54.155Z,99709.88
2023-03-22T06:33:45.889Z,99715.97
2023-03-22T06:36:29.683Z,99718.69
2023-03-22T06:39:13.666Z,99715.13
2023-03-22T06:41:50.558Z,99705.22
2023-03-22T06:44:20.365Z,99717.34
2023-03-22T06:46:52.791Z,99717.91
2023-03-22T06:49:46.749Z,99721.88
2023-03-22T06:52:24.526Z,99711.56
2023-03-22T06:54:54.972Z,99710.13
2023-03-22T06:57:24.596Z,99711.19
2023-03-22T06:59:54.194Z,99700.47
2023-03-22T07:02:23.899Z,99708.00
2023-03-22T07:05:23.627Z,99705.94
2023-03-22T07:07:53.440Z,99707.72
2023-03-22T07:10:23.033Z,99707.78
2023-03-22T07:12:53.175Z,99696.47
2023-03-22T07:15:24.664Z,99705.75
2023-03-22T07:18:00.726Z,99695.94
2023-03-22T07:20:36.856Z,99698.75
2023-03-22T07:23:07.070Z,99691.78
2023-03-22T07:25:43.417Z,99684.34
2023-03-22T07:28:21.258Z,99684.84
2023-03-22T07:30:51.069Z,99672.69
2023-03-22T07:33:22.379Z,99677.84
2023-03-22T07:35:54.850Z,99677.00
2023-03-22T07:38:24.601Z,99669.41
2023-03-22T07:40:55.961Z,99671.16
2023-03-22T07:43:30.124Z,99666.94
2023-03-22T07:46:10.844Z,99663.50
2023-03-22T07:49:06.834Z,99655.06
2023-03-22T07:51:57.276Z,99665.84
2023-03-22T07:54:33.926Z,99657.53
2023-03-22T07:57:06.759Z,99663.16
2023-03-22T07:59:40.263Z,99668.63
2023-03-22T08:02:12.389Z,99663.69
2023-03-22T08:04:51.840Z,99670.81
2023-03-22T08:07:45.044Z,99670.13
2023-03-22T08:10:16.486Z,99667.47
2023-03-22T08:12:46.508Z,99676.28
2023-03-22T08:15:23.594Z,99672.19
2023-03-22T08:17:53.379Z,99662.22
2023-03-22T08:20:32.575Z,99665.09
2023-03-22T08:23:12.159Z,99656.06
2023-03-22T08:26:08.458Z,99661.91
2023-03-22T08:28:38.062Z,99655.78
2023-03-22T08:31:15.141Z,99658.06
2023-03-22T08:33:46.715Z,99653.53
2023-03-22T08:36:18.508Z,99668.13
2023-03-22T08:39:01.589Z,99658.84
2023-03-22T08:42:00.226Z,99667.44
2023-03-22T08:44:31.013Z,99680.03
2023-03-22T08:47:03.059Z,99651.59
2023-03-22T08:49:34.127Z,99664.84
2023-03-22T08:52:11.945Z,99658.69
2023-03-22T08:55:08.657Z,99665.31
2023-03-22T08:57:58.924Z,99663.38
2023-03-22T09:00:47.617Z,99660.41
2023-03-22T09:03:47.255Z,99656.13
2023-03-22T09:06:17.104Z,99651.03
2023-03-22T09:08:47.111Z,99655.25
2023-03-22T09:11:21.584Z,99654.44
2023-03-22T09:13:51.647Z,99648.75
2023-03-22T09:16:22.162Z,99658.03
2023-03-22T09:18:52.750Z,99664.69
2023-03-22T09:21:24.509Z,99658.00
2023-03-22T09:23:59.290Z,99650.75
2023-03-22T09:26:42.309Z,99659.22
2023-03-22T09:29:12.701Z,99655.75
2023-03-22T09:31:43.517Z,99654.59
2023-03-22T09:34:33.423Z,99651.78
2023-03-22T09:37:04.238Z,99652.56
2023-03-22T09:39:44.699Z,99657.00
2023-03-22T09:42:28.308Z,99657.88
2023-03-22T09:44:58.952Z,99642.81
2023-03-22T09:47:44.264Z,99634.31
2023-03-22T09:50:16.863Z,99638.81
2023-03-22T09:52:46.680Z,99634.94
2023-03-22T09:55:21.397Z,99643.09
2023-03-22T09:58:02.523Z,99648.50
2023-03-22T10:00:41.246Z,99665.09
2023-03-22T10:03:21.494Z,99655.56
2023-03-22T10:05:53.550Z,99659.09
2023-03-22T10:08:36.681Z,99656.47
2023-03-22T10:11:11.357Z,99657.13
2023-03-22T10:13:48.549Z,99645.03
2023-03-22T10:16:28.858Z,99650.28
2023-03-22T10:19:02.548Z,99654.88
2023-03-22T10:21:32.298Z,99657.94
2023-03-22T10:24:04.377Z,99655.34
2023-03-22T10:26:37.555Z,99651.56
2023-03-22T10:29:15.007Z,99655.22
2023-03-22T10:31:46.964Z,99652.88
2023-03-22T10:34:21.976Z,99646.34
2023-03-22T10:36:53.764Z,99640.88
2023-03-22T10:39:31.587Z,99648.41
2023-03-22T10:42:02.884Z,99647.81
2023-03-22T10:44:38.970Z,99652.41
2023-03-22T10:47:11.397Z,99651.75
2023-03-22T10:49:44.824Z,99649.03
2023-03-22T10:52:23.830Z,99649.25
2023-03-22T10:54:53.428Z,99652.19
2023-03-22T10:57:23.001Z,99645.41
2023-03-22T10:59:55.921Z,99650.41
2023-03-22T11:02:28.200Z,99647.84
2023-03-22T11:04:59.912Z,99654.53
2023-03-22T11:07:36.079Z,99648.91
2023-03-22T11:10:21.943Z,99654.47
2023-03-22T11:12:53.715Z,99642.56
2023-03-22T11:15:31.129Z,99639.91
2023-03-22T11:18:03.609Z,99638.72
2023-03-22T11:20:33.390Z,99644.91
2023-03-22T11:23:05.321Z,99638.59
2023-03-22T11:25:37.725Z,99642.25
2023-03-22T11:28:12.914Z,99636.91
2023-03-22T11:31:01.041Z,99644.44
2023-03-22T11:33:30.920Z,99635.47
2023-03-22T11:36:03.426Z,99635.25
2023-03-22T11:38:37.865Z,99636.56
2023-03-22T11:41:10.064Z,99634.91
2023-03-22T11:43:42.321Z,99635.13
2023-03-22T11:46:14.913Z,99633.94
2023-03-22T11:48:45.696Z,99637.59
2023-03-22T11:51:19.973Z,99634.56
2023-03-22T11:53:50.973Z,99631.78
2023-03-22T11:56:21.906Z,99639.00
2023-03-22T11:59:04.152Z,99635.81
2023-03-22T12:01:40.804Z,99635.50
2023-03-22T12:04:14.380Z,99632.56
2023-03-22T12:06:44.727Z,99627.38
2023-03-22T12:09:25.643Z,99624.44
2023-03-22T12:11:57.326Z,99623.09
2023-03-22T12:14:29.956Z,99627.06
2023-03-22T12:17:07.722Z,99621.63
2023-03-22T12:19:46.272Z,99617.16
2023-03-22T12:22:17.531Z,99615.31
2023-03-22T12:24:47.121Z,99611.19
2023-03-22T12:27:20.783Z,99605.97
2023-03-22T12:29:55.702Z,99609.56
2023-03-22T12:32:30.580Z,99611.53
2023-03-22T12:35:16.106Z,99607.09
2023-03-22T12:37:49.450Z,99607.97
2023-03-22T12:40:24.387Z,99612.28
2023-03-22T12:43:00.939Z,99605.34
2023-03-22T12:45:32.347Z,99611.84
2023-03-22T12:48:09.942Z,99608.78
2023-03-22T12:50:43.121Z,99612.41
2023-03-22T12:53:15.817Z,99614.22
2023-03-22T12:55:46.356Z,99610.84
2023-03-22T12:58:18.144Z,99609.44
2023-03-22T13:00:50.610Z,99607.97
2023-03-22T13:03:30.042Z,99610.31
2023-03-22T13:06:05.151Z,99608.94
2023-03-22T13:09:08.904Z,99618.75
2023-03-22T13:11:38.752Z,99629.53
2023-03-22T13:14:08.320Z,99625.91
2023-03-22T13:16:53.397Z,99622.25
2023-03-22T13:19:35.839Z,99625.84
2023-03-22T13:22:21.742Z,99624.56
2023-03-22T13:25:30.733Z,99626.66
2023-03-22T13:28:03.234Z,99620.63
2023-03-22T13:30:35.203Z,99614.44
2023-03-22T13:33:15.803Z,99621.56
2023-03-22T13:35:51.112Z,99622.50
2023-03-22T13:38:24.498Z,99620.72
2023-03-22T13:40:59.427Z,99619.44
2023-03-22T13:43:32.889Z,99610.31
2023-03-22T13:46:46.169Z,99604.66
2023-03-22T13:49:23.248Z,99591.16
2023-03-22T13:51:55.970Z,99594.69
2023-03-22T13:54:29.697Z,99588.44
2023-03-22T13:57:01.498Z,99579.47
2023-03-22T13:59:34.064Z,99585.56
2023-03-22T14:02:06.647Z,99586.94
2023-03-22T14:04:42.554Z,99575.03
2023-03-22T14:07:23.945Z,99579.94
2023-03-22T14:09:55.898Z,99569.06
2023-03-22T14:12:27.660Z,99580.13
2023-03-22T14:14:59.139Z,99573.31
2023-03-22T14:17:35.719Z,99569.16
2023-03-22T14:20:10.394Z,99569.28
2023-03-22T14:53:41.748Z,99566.31
2023-03-22T14:56:13.037Z,99577.38
2023-03-22T14:58:42.791Z,99568.09
2023-03-22T15:01:17.523Z,99555.00
2023-03-22T15:03:49.845Z,99562.00
2023-03-22T15:06:19.590Z,99558.63
2023-03-22T15:08:51.902Z,99567.53
2023-03-22T15:11:21.948Z,99563.06
2023-03-22T15:13:54.052Z,99557.84
2023-03-22T15:16:25.045Z,99560.72
2023-03-22T15:18:55.087Z,99554.69
2023-03-22T15:21:24.754Z,99548.59
2023-03-22T15:24:16.524Z,99543.19
2023-03-22T15:26:46.212Z,99545.84
2023-03-22T15:29:17.111Z,99549.38
2023-03-22T15:31:48.926Z,99544.78
2023-03-22T15:34:21.912Z,99544.88
2023-03-22T15:36:53.845Z,99540.28
2023-03-22T15:39:28.219Z,99540.28
2023-03-22T15:42:00.007Z,99548.19
2023-03-22T15:44:32.443Z,99542.88
2023-03-22T15:47:03.738Z,99532.25
2023-03-22T15:49:38.650Z,99525.81
2023-03-22T15:52:13.036Z,99521.38
2023-03-22T15:54:47.871Z,99523.16
2023-03-22T15:57:22.788Z,99519.66
2023-03-22T15:59:55.468Z,99522.22
2023-03-22T16:02:31.082Z,99519.44
2023-03-22T16:05:01.447Z,99528.94
2023-03-22T16:07:32.701Z,99529.59
2023-03-22T16:10:04.992Z,99526.81
2023-03-22T16:12:34.724Z,99526.81
2023-03-22T16:15:04.344Z,99528.41
2023-03-22T16:17:34.047Z,99517.56
2023-03-22T16:20:04.469Z,99520.09
2023-03-22T16:22:34.399Z,99519.16
2023-03-22T16:25:07.252Z,99516.28
2023-03-22T16:27:36.970Z,99523.19
2023-03-22T16:30:09.076Z,99518.63
2023-03-22T16:32:38.709Z,99516.69
2023-03-22T16:35:09.696Z,99514.91
2023-03-22T16:37:40.429Z,99520.09
2023-03-22T16:40:17.443Z,99518.41
2023-03-22T16:42:47.364Z,99514.91
2023-03-22T16:45:19.706Z,99515.84
2023-03-22T16:47:49.556Z,99513.06
2023-03-22T16:50:19.358Z,99510.31
2023-03-22T16:52:50.704Z,99512.13
2023-03-22T16:55:26.173Z,99503.19
2023-03-22T16:57:56.191Z,99508.59
2023-03-22T17:00:27.314Z,99507.75
2023-03-22T17:02:59.080Z,99503.28
2023-03-22T17:05:29.996Z,99521.19
2023-03-22T17:08:01.059Z,99508.09
2023-03-22T17:10:35.300Z,99513.53
2023-03-22T17:13:05.284Z,99503.94
2023-03-22T17:15:38.371Z,99507.56
2023-03-22T17:18:10.133Z,99506.69
2023-03-22T17:20:40.793Z,99511.28
2023-03-22T17:23:12.269Z,99506.09
2023-03-22T17:25:47.651Z,99501.94
2023-03-22T17:28:18.348Z,99502.16
2023-03-22T17:30:48.265Z,99510.13
2023-03-22T17:33:18.798Z,99507.56
2023-03-22T17:35:48.659Z,99497.09
2023-03-22T17:38:18.644Z,99499.88
2023-03-22T17:41:00.194Z,99493.06
2023-03-22T17:43:31.782Z,99505.66
2023-03-22T17:46:49.786Z,99503.94
2023-03-22T17:48:51.053Z,99504.88
2023-03-22T17:51:20.809Z,99501.38
2023-03-22T17:54:24.139Z,99498.84
2023-03-22T17:57:04.958Z,99500.75
2023-03-22T17:59:33.197Z,99508.00
2023-03-22T18:02:02.964Z,99503.41
2023-03-22T18:04:33.023Z,99497.25
2023-03-22T18:07:02.681Z,99500.75
2023-03-22T18:09:32.388Z,99498.06
2023-03-22T18:12:04.633Z,99491.81
2023-03-22T18:17:05.507Z,99495.41
2023-03-22T18:19:36.872Z,99492.66
2023-03-22T18:22:06.562Z,99497.13
2023-03-22T18:24:36.712Z,99499.03
2023-03-22T18:27:11.516Z,99500.00
2023-03-22T18:29:41.283Z,99503.63
2023-03-22T18:32:18.542Z,99500.97
2023-03-22T18:34:49.612Z,99505.50
2023-03-22T18:37:19.415Z,99508.16
2023-03-22T18:40:32.549Z,99507.44
2023-03-22T18:42:48.439Z,99503.91
2023-03-22T18:45:21.135Z,99493.28
2023-03-22T18:47:50.857Z,99499.47
2023-03-22T18:50:20.598Z,99497.66
2023-03-22T18:55:47.621Z,99498.59
2023-03-22T18:58:19.116Z,99497.88
2023-03-22T19:00:48.743Z,99489.03
2023-03-22T19:03:18.481Z,99490.94
2023-03-22T19:05:48.141Z,99483.09
2023-03-22T19:08:27.222Z,99484.88
2023-03-22T19:10:58.019Z,99479.66
2023-03-22T19:13:30.360Z,99485.09
2023-03-22T19:16:02.246Z,99476.28
2023-03-22T19:18:32.936Z,99477.34
2023-03-22T19:21:13.164Z,99482.66
2023-03-22T19:23:47.362Z,99470.31
2023-03-22T19:26:17.118Z,99467.66
2023-03-22T19:31:19.934Z,99479.25
2023-03-22T19:33:56.148Z,99473.91
2023-03-22T19:36:27.701Z,99466.94
2023-03-22T19:38:59.236Z,99457.34
2023-03-22T19:41:50.995Z,99456.47
2023-03-22T19:44:22.637Z,99459.13
2023-03-22T19:46:54.923Z,99460.13
2023-03-22T19:49:26.548Z,99455.00
2023-03-22T19:52:00.009Z,99442.88
2023-03-22T19:54:39.445Z,99455.66
2023-03-22T19:57:14.826Z,99461.38
2023-03-22T20:00:11.852Z,99452.84
2023-03-22T20:02:38.756Z,99451.47
2023-03-22T20:05:16.959Z,99451.56
2023-03-22T20:07:47.697Z,99448.19
2023-03-22T20:10:17.378Z,99437.63
2023-03-22T20:12:47.049Z,99432.31
2023-03-22T20:15:19.492Z,99436.81
2023-03-22T20:17:49.202Z,99434.25
2023-03-22T20:20:19.266Z,99432.66
2023-03-22T20:22:50.999Z,99423.09
2023-03-22T20:25:21.508Z,99425.09
2023-03-22T20:27:52.866Z,99429.56
2023-03-22T20:30:27.327Z,99424.34
2023-03-22T20:32:56.983Z,99415.63
2023-03-22T20:35:26.643Z,99414.78
2023-03-22T20:37:56.353Z,99423.69
2023-03-22T20:40:26.626Z,99420.94
2023-03-22T20:42:56.387Z,99424.47
2023-03-22T20:45:28.926Z,99425.28
2023-03-22T20:47:58.594Z,99422.66
2023-03-22T20:50:28.378Z,99425.28
2023-03-22T20:52:58.027Z,99427.94
2023-03-22T20:55:27.958Z,99430.50
2023-03-22T20:57:58.162Z,99420.00
2023-03-22T21:00:30.429Z,99419.25
2023-03-22T21:03:00.120Z,99416.72
2023-03-22T21:05:29.840Z,99420.41
2023-03-22T21:07:59.607Z,99424.03
2023-03-22T21:10:29.393Z,99427.63
2023-03-22T21:12:59.121Z,99421.75
2023-03-22T21:15:32.054Z,99412.28
2023-03-22T21:18:01.848Z,99410.06
2023-03-22T21:20:32.810Z,99401.56
2023-03-22T21:23:02.678Z,99407.28
2023-03-22T21:25:32.345Z,99403.03
2023-03-22T21:28:01.987Z,99400.47
2023-03-22T21:30:34.223Z,99397.81
2023-03-22T21:33:04.151Z,99386.22
2023-03-22T21:35:34.963Z,99389.88
2023-03-22T21:38:10.008Z,99385.50
2023-03-22T21:40:40.711Z,99392.59
2023-03-22T21:43:10.728Z,99390.81
2023-03-22T21:45:42.960Z,99382.84
2023-03-22T21:48:14.060Z,99390.81
2023-03-22T21:50:45.534Z,99377.53
2023-03-22T21:53:15.775Z,99378.38
2023-03-22T21:55:46.762Z,99370.31
2023-03-22T21:58:17.198Z,99358.75
2023-03-22T22:00:50.705Z,99356.84
2023-03-22T22:03:20.727Z,99361.19
2023-03-22T22:05:51.307Z,99370.84
2023-03-22T22:08:21.715Z,99366.31
2023-03-22T22:10:56.053Z,99368.00
2023-03-22T22:13:26.444Z,99373.28
2023-03-22T22:16:03.333Z,99382.03
2023-03-22T22:18:35.682Z,99375.78
2023-03-22T22:21:09.013Z,99380.97
2023-03-22T22:23:41.373Z,99365.88
2023-03-22T22:26:12.347Z,99365.88
2023-03-22T22:28:43.277Z,99362.28
2023-03-22T22:31:18.594Z,99359.53
2023-03-22T22:33:48.461Z,99347.84
2023-03-22T22:36:18.118Z,99342.44
2023-03-22T22:38:48.101Z,99347.63
2023-03-22T22:41:19.207Z,99350.06
2023-03-22T22:43:48.836Z,99349.13
2023-03-22T22:46:21.239Z,99349.00
2023-03-22T22:48:50.985Z,99344.34
2023-03-22T22:51:22.519Z,99343.28
2023-03-22T22:53:52.700Z,99335.22
2023-03-22T22:56:23.129Z,99342.25
2023-03-22T22:58:53.327Z,99352.75
2023-03-22T23:01:26.353Z,99359.84
2023-03-22T23:03:56.153Z,99355.31
2023-03-22T23:06:26.359Z,99356.25
2023-03-22T23:09:01.810Z,99365.16
2023-03-22T23:11:33.013Z,99356.56
2023-03-22T23:14:06.117Z,99364.75
2023-03-22T23:16:39.128Z,99365.06
2023-03-22T23:19:09.688Z,99355.69
2023-03-22T23:21:41.766Z,99359.41
2023-03-22T23:24:14.544Z,99342.75
2023-03-22T23:26:47.965Z,99346.56
2023-03-22T23:29:17.966Z,99338.06
2023-03-22T23:31:51.012Z,99343.59
2023-03-22T23:34:21.338Z,99340.16
2023-03-22T23:36:52.282Z,99344.75
2023-03-22T23:39:24.198Z,99335.06
2023-03-22T23:41:54.595Z,99326.34
2023-03-22T23:44:24.278Z,99335.34
2023-03-22T23:46:56.619Z,99337.19
2023-03-22T23:49:26.538Z,99338.13
2023-03-22T23:51:56.499Z,99332.91
2023-03-22T23:54:26.300Z,99336.53
2023-03-22T23:56:56.031Z,99333.97
2023-03-22T23:59:25.927Z,99329.53
